sensor_id;sensor_type;location;lat;lon;timestamp;P1;durP1;ratioP1;P2;durP2;ratioP2
55417;SDS011;41287;47.554;7.844;2023-11-22T00:01:04;0.10;;;0.10;;
55417;SDS011;41287;47.554;7.844;2023-11-22T00:03:30;0.20;;;0.20;;
55417;SDS011;41287;47.554;7.844;2023-11-22T00:05:56;0.13;;;0.13;;
55417;SDS011;41287;47.554;7.844;2023-11-22T00:08:21;1.48;;;0.10;;
55417;SDS011;41287;47.554;7.844;2023-11-22T00:10:47;0.20;;;0.20;;
55417;SDS011;41287;47.554;7.844;2023-11-22T00:13:12;0.10;;;0.10;;
55417;SDS011;41287;47.554;7.844;2023-11-22T00:15:37;0.20;;;0.20;;
55417;SDS011;41287;47.554;7.844;2023-11-22T00:18:04;0.20;;;0.20;;
55417;SDS011;41287;47.554;7.844;2023-11-22T00:20:30;0.20;;;0.20;;
55417;SDS011;41287;47.554;7.844;2023-11-22T00:22:55;0.10;;;0.10;;
55417;SDS011;41287;47.554;7.844;2023-11-22T00:25:21;0.20;;;0.20;;
55417;SDS011;41287;47.554;7.844;2023-11-22T00:27:49;0.10;;;0.10;;
55417;SDS011;41287;47.554;7.844;2023-11-22T00:30:15;0.10;;;0.10;;
55417;SDS011;41287;47.554;7.844;2023-11-22T00:32:40;0.20;;;0.20;;
55417;SDS011;41287;47.554;7.844;2023-11-22T00:35:06;0.20;;;0.20;;
55417;SDS011;41287;47.554;7.844;2023-11-22T00:37:32;0.10;;;0.10;;
55417;SDS011;41287;47.554;7.844;2023-11-22T00:40:00;0.15;;;0.15;;
55417;SDS011;41287;47.554;7.844;2023-11-22T00:42:31;0.52;;;0.20;;
55417;SDS011;41287;47.554;7.844;2023-11-22T00:44:56;0.15;;;0.15;;
55417;SDS011;41287;47.554;7.844;2023-11-22T00:47:21;0.20;;;0.20;;
55417;SDS011;41287;47.554;7.844;2023-11-22T00:49:47;0.10;;;0.10;;
55417;SDS011;41287;47.554;7.844;2023-11-22T00:52:15;0.20;;;0.20;;
55417;SDS011;41287;47.554;7.844;2023-11-22T00:54:40;0.40;;;0.20;;
55417;SDS011;41287;47.554;7.844;2023-11-22T00:57:05;0.10;;;0.10;;
55417;SDS011;41287;47.554;7.844;2023-11-22T00:59:32;0.10;;;0.10;;
55417;SDS011;41287;47.554;7.844;2023-11-22T01:01:57;0.10;;;0.10;;
55417;SDS011;41287;47.554;7.844;2023-11-22T01:04:25;0.10;;;0.10;;
55417;SDS011;41287;47.554;7.844;2023-11-22T01:06:50;0.10;;;0.10;;
55417;SDS011;41287;47.554;7.844;2023-11-22T01:09:15;0.10;;;0.10;;
55417;SDS011;41287;47.554;7.844;2023-11-22T01:11:40;0.13;;;0.13;;
55417;SDS011;41287;47.554;7.844;2023-11-22T01:14:06;0.10;;;0.10;;
55417;SDS011;41287;47.554;7.844;2023-11-22T01:16:31;0.10;;;0.10;;
55417;SDS011;41287;47.554;7.844;2023-11-22T01:18:57;0.20;;;0.20;;
55417;SDS011;41287;47.554;7.844;2023-11-22T01:21:22;0.10;;;0.10;;
55417;SDS011;41287;47.554;7.844;2023-11-22T01:23:47;0.20;;;0.20;;
55417;SDS011;41287;47.554;7.844;2023-11-22T01:26:13;0.10;;;0.10;;
55417;SDS011;41287;47.554;7.844;2023-11-22T01:28:38;0.15;;;0.15;;
55417;SDS011;41287;47.554;7.844;2023-11-22T01:31:10;0.17;;;0.17;;
55417;SDS011;41287;47.554;7.844;2023-11-22T01:33:38;0.20;;;0.20;;
55417;SDS011;41287;47.554;7.844;2023-11-22T01:36:03;0.20;;;0.20;;
55417;SDS011;41287;47.554;7.844;2023-11-22T01:38:28;0.10;;;0.10;;
55417;SDS011;41287;47.554;7.844;2023-11-22T01:40:54;0.20;;;0.20;;
55417;SDS011;41287;47.554;7.844;2023-11-22T01:43:20;0.10;;;0.10;;
55417;SDS011;41287;47.554;7.844;2023-11-22T01:45:51;0.10;;;0.10;;
55417;SDS011;41287;47.554;7.844;2023-11-22T01:48:17;0.10;;;0.10;;
55417;SDS011;41287;47.554;7.844;2023-11-22T01:50:42;0.10;;;0.10;;
55417;SDS011;41287;47.554;7.844;2023-11-22T01:53:08;0.10;;;0.10;;
55417;SDS011;41287;47.554;7.844;2023-11-22T01:55:37;0.10;;;0.10;;
55417;SDS011;41287;47.554;7.844;2023-11-22T01:58:07;0.10;;;0.10;;
55417;SDS011;41287;47.554;7.844;2023-11-22T02:00:36;0.20;;;0.20;;
55417;SDS011;41287;47.554;7.844;2023-11-22T02:03:06;0.20;;;0.20;;
55417;SDS011;41287;47.554;7.844;2023-11-22T02:05:32;0.10;;;0.10;;
55417;SDS011;41287;47.554;7.844;2023-11-22T02:07:58;0.10;;;0.10;;
55417;SDS011;41287;47.554;7.844;2023-11-22T02:10:27;0.10;;;0.10;;
55417;SDS011;41287;47.554;7.844;2023-11-22T02:12:53;0.20;;;0.20;;
55417;SDS011;41287;47.554;7.844;2023-11-22T02:15:18;0.10;;;0.10;;
55417;SDS011;41287;47.554;7.844;2023-11-22T02:17:43;0.10;;;0.10;;
55417;SDS011;41287;47.554;7.844;2023-11-22T02:20:10;0.10;;;0.10;;
55417;SDS011;41287;47.554;7.844;2023-11-22T02:22:42;0.10;;;0.10;;
55417;SDS011;41287;47.554;7.844;2023-11-22T02:25:09;0.10;;;0.10;;
55417;SDS011;41287;47.554;7.844;2023-11-22T02:27:34;0.20;;;0.20;;
55417;SDS011;41287;47.554;7.844;2023-11-22T02:30:07;0.10;;;0.10;;
55417;SDS011;41287;47.554;7.844;2023-11-22T02:32:33;0.10;;;0.10;;
55417;SDS011;41287;47.554;7.844;2023-11-22T02:35:06;0.10;;;0.10;;
55417;SDS011;41287;47.554;7.844;2023-11-22T02:37:33;0.10;;;0.10;;
55417;SDS011;41287;47.554;7.844;2023-11-22T02:40:06;0.10;;;0.10;;
55417;SDS011;41287;47.554;7.844;2023-11-22T02:42:42;0.10;;;0.10;;
55417;SDS011;41287;47.554;7.844;2023-11-22T02:45:08;0.20;;;0.20;;
55417;SDS011;41287;47.554;7.844;2023-11-22T02:47:35;0.20;;;0.20;;
55417;SDS011;41287;47.554;7.844;2023-11-22T02:50:02;0.10;;;0.10;;
55417;SDS011;41287;47.554;7.844;2023-11-22T02:52:27;0.20;;;0.20;;
55417;SDS011;41287;47.554;7.844;2023-11-22T02:54:55;0.10;;;0.10;;
55417;SDS011;41287;47.554;7.844;2023-11-22T02:57:21;0.10;;;0.10;;
55417;SDS011;41287;47.554;7.844;2023-11-22T02:59:46;0.10;;;0.10;;
55417;SDS011;41287;47.554;7.844;2023-11-22T03:02:11;0.10;;;0.10;;
55417;SDS011;41287;47.554;7.844;2023-11-22T03:04:37;0.10;;;0.10;;
55417;SDS011;41287;47.554;7.844;2023-11-22T03:07:03;0.10;;;0.10;;
55417;SDS011;41287;47.554;7.844;2023-11-22T03:09:31;0.10;;;0.10;;
55417;SDS011;41287;47.554;7.844;2023-11-22T03:11:56;0.10;;;0.10;;
55417;SDS011;41287;47.554;7.844;2023-11-22T03:14:22;0.10;;;0.10;;
55417;SDS011;41287;47.554;7.844;2023-11-22T03:16:53;0.17;;;0.17;;
55417;SDS011;41287;47.554;7.844;2023-11-22T03:19:20;0.10;;;0.10;;
55417;SDS011;41287;47.554;7.844;2023-11-22T03:21:46;0.15;;;0.15;;
55417;SDS011;41287;47.554;7.844;2023-11-22T03:24:11;0.10;;;0.10;;
55417;SDS011;41287;47.554;7.844;2023-11-22T03:26:36;0.10;;;0.10;;
55417;SDS011;41287;47.554;7.844;2023-11-22T03:29:02;0.10;;;0.10;;
55417;SDS011;41287;47.554;7.844;2023-11-22T03:31:33;0.10;;;0.10;;
55417;SDS011;41287;47.554;7.844;2023-11-22T03:33:58;0.10;;;0.10;;
55417;SDS011;41287;47.554;7.844;2023-11-22T03:36:24;0.10;;;0.10;;
55417;SDS011;41287;47.554;7.844;2023-11-22T03:38:50;0.17;;;0.17;;
55417;SDS011;41287;47.554;7.844;2023-11-22T03:41:16;0.10;;;0.10;;
55417;SDS011;41287;47.554;7.844;2023-11-22T03:43:44;0.10;;;0.10;;
55417;SDS011;41287;47.554;7.844;2023-11-22T03:46:09;0.20;;;0.20;;
55417;SDS011;41287;47.554;7.844;2023-11-22T03:48:40;0.10;;;0.10;;
55417;SDS011;41287;47.554;7.844;2023-11-22T03:51:09;0.10;;;0.10;;
55417;SDS011;41287;47.554;7.844;2023-11-22T03:53:34;0.10;;;0.10;;
55417;SDS011;41287;47.554;7.844;2023-11-22T03:55:59;0.20;;;0.20;;
55417;SDS011;41287;47.554;7.844;2023-11-22T03:58:25;0.10;;;0.10;;
55417;SDS011;41287;47.554;7.844;2023-11-22T04:00:51;0.10;;;0.10;;
55417;SDS011;41287;47.554;7.844;2023-11-22T04:03:18;0.10;;;0.10;;
55417;SDS011;41287;47.554;7.844;2023-11-22T04:05:43;0.15;;;0.15;;
55417;SDS011;41287;47.554;7.844;2023-11-22T04:08:09;0.10;;;0.10;;
55417;SDS011;41287;47.554;7.844;2023-11-22T04:10:34;0.10;;;0.10;;
55417;SDS011;41287;47.554;7.844;2023-11-22T04:13:00;0.20;;;0.20;;
55417;SDS011;41287;47.554;7.844;2023-11-22T04:15:25;0.20;;;0.20;;
55417;SDS011;41287;47.554;7.844;2023-11-22T04:17:54;0.10;;;0.10;;
55417;SDS011;41287;47.554;7.844;2023-11-22T04:20:20;0.10;;;0.10;;
55417;SDS011;41287;47.554;7.844;2023-11-22T04:22:45;0.10;;;0.10;;
55417;SDS011;41287;47.554;7.844;2023-11-22T04:25:11;0.13;;;0.13;;
55417;SDS011;41287;47.554;7.844;2023-11-22T04:27:40;0.10;;;0.10;;
55417;SDS011;41287;47.554;7.844;2023-11-22T04:30:06;0.10;;;0.10;;
55417;SDS011;41287;47.554;7.844;2023-11-22T04:35:04;0.10;;;0.10;;
55417;SDS011;41287;47.554;7.844;2023-11-22T04:37:30;0.10;;;0.10;;
55417;SDS011;41287;47.554;7.844;2023-11-22T04:39:57;0.35;;;0.10;;
55417;SDS011;41287;47.554;7.844;2023-11-22T04:42:23;0.20;;;0.20;;
55417;SDS011;41287;47.554;7.844;2023-11-22T04:44:48;0.10;;;0.10;;
55417;SDS011;41287;47.554;7.844;2023-11-22T04:47:14;0.10;;;0.10;;
55417;SDS011;41287;47.554;7.844;2023-11-22T04:49:39;0.17;;;0.17;;
55417;SDS011;41287;47.554;7.844;2023-11-22T04:52:04;0.20;;;0.20;;
55417;SDS011;41287;47.554;7.844;2023-11-22T04:54:33;0.20;;;0.20;;
55417;SDS011;41287;47.554;7.844;2023-11-22T04:56:59;0.10;;;0.10;;
55417;SDS011;41287;47.554;7.844;2023-11-22T04:59:24;0.20;;;0.20;;
55417;SDS011;41287;47.554;7.844;2023-11-22T05:01:50;0.22;;;0.10;;
55417;SDS011;41287;47.554;7.844;2023-11-22T05:04:15;0.20;;;0.20;;
55417;SDS011;41287;47.554;7.844;2023-11-22T05:06:40;0.20;;;0.20;;
55417;SDS011;41287;47.554;7.844;2023-11-22T05:09:06;0.10;;;0.10;;
55417;SDS011;41287;47.554;7.844;2023-11-22T05:11:34;0.10;;;0.10;;
55417;SDS011;41287;47.554;7.844;2023-11-22T05:14:00;0.10;;;0.10;;
55417;SDS011;41287;47.554;7.844;2023-11-22T05:16:27;0.20;;;0.20;;
55417;SDS011;41287;47.554;7.844;2023-11-22T05:18:53;0.10;;;0.10;;
55417;SDS011;41287;47.554;7.844;2023-11-22T05:21:18;0.10;;;0.10;;
55417;SDS011;41287;47.554;7.844;2023-11-22T05:23:43;0.10;;;0.10;;
55417;SDS011;41287;47.554;7.844;2023-11-22T05:26:09;0.10;;;0.10;;
55417;SDS011;41287;47.554;7.844;2023-11-22T05:28:36;0.10;;;0.10;;
55417;SDS011;41287;47.554;7.844;2023-11-22T05:31:01;0.10;;;0.10;;
55417;SDS011;41287;47.554;7.844;2023-11-22T05:33:26;0.20;;;0.20;;
55417;SDS011;41287;47.554;7.844;2023-11-22T05:35:52;0.10;;;0.10;;
55417;SDS011;41287;47.554;7.844;2023-11-22T05:38:19;0.10;;;0.10;;
55417;SDS011;41287;47.554;7.844;2023-11-22T05:40:45;0.20;;;0.20;;
55417;SDS011;41287;47.554;7.844;2023-11-22T05:43:10;0.20;;;0.20;;
55417;SDS011;41287;47.554;7.844;2023-11-22T05:45:35;0.22;;;0.20;;
55417;SDS011;41287;47.554;7.844;2023-11-22T05:48:01;0.10;;;0.10;;
55417;SDS011;41287;47.554;7.844;2023-11-22T05:50:26;0.20;;;0.20;;
55417;SDS011;41287;47.554;7.844;2023-11-22T05:52:52;0.10;;;0.10;;
55417;SDS011;41287;47.554;7.844;2023-11-22T05:55:17;0.13;;;0.13;;
55417;SDS011;41287;47.554;7.844;2023-11-22T05:57:43;0.10;;;0.10;;
55417;SDS011;41287;47.554;7.844;2023-11-22T06:00:09;0.10;;;0.10;;
55417;SDS011;41287;47.554;7.844;2023-11-22T06:02:35;0.22;;;0.20;;
55417;SDS011;41287;47.554;7.844;2023-11-22T06:05:04;0.20;;;0.20;;
55417;SDS011;41287;47.554;7.844;2023-11-22T06:07:30;0.20;;;0.20;;
55417;SDS011;41287;47.554;7.844;2023-11-22T06:09:56;0.10;;;0.10;;
55417;SDS011;41287;47.554;7.844;2023-11-22T06:12:22;0.10;;;0.10;;
55417;SDS011;41287;47.554;7.844;2023-11-22T06:14:49;0.10;;;0.10;;
55417;SDS011;41287;47.554;7.844;2023-11-22T06:17:15;0.10;;;0.10;;
55417;SDS011;41287;47.554;7.844;2023-11-22T06:19:40;0.10;;;0.10;;
55417;SDS011;41287;47.554;7.844;2023-11-22T06:22:06;0.10;;;0.10;;
55417;SDS011;41287;47.554;7.844;2023-11-22T06:24:32;0.10;;;0.10;;
55417;SDS011;41287;47.554;7.844;2023-11-22T06:27:01;0.20;;;0.20;;
55417;SDS011;41287;47.554;7.844;2023-11-22T06:29:26;0.10;;;0.10;;
55417;SDS011;41287;47.554;7.844;2023-11-22T06:31:52;0.20;;;0.20;;
55417;SDS011;41287;47.554;7.844;2023-11-22T06:34:17;0.10;;;0.10;;
55417;SDS011;41287;47.554;7.844;2023-11-22T06:36:42;0.10;;;0.10;;
55417;SDS011;41287;47.554;7.844;2023-11-22T06:39:11;0.10;;;0.10;;
55417;SDS011;41287;47.554;7.844;2023-11-22T06:41:39;0.10;;;0.10;;
55417;SDS011;41287;47.554;7.844;2023-11-22T06:44:06;0.10;;;0.10;;
55417;SDS011;41287;47.554;7.844;2023-11-22T06:46:31;0.10;;;0.10;;
55417;SDS011;41287;47.554;7.844;2023-11-22T06:48:57;0.77;;;0.32;;
55417;SDS011;41287;47.554;7.844;2023-11-22T06:51:22;2.92;;;0.50;;
55417;SDS011;41287;47.554;7.844;2023-11-22T06:53:47;1.23;;;0.52;;
55417;SDS011;41287;47.554;7.844;2023-11-22T06:56:13;0.65;;;0.40;;
55417;SDS011;41287;47.554;7.844;2023-11-22T06:58:39;2.15;;;0.45;;
55417;SDS011;41287;47.554;7.844;2023-11-22T07:01:05;0.68;;;0.40;;
55417;SDS011;41287;47.554;7.844;2023-11-22T07:03:32;2.38;;;0.47;;
55417;SDS011;41287;47.554;7.844;2023-11-22T07:05:57;0.65;;;0.30;;
55417;SDS011;41287;47.554;7.844;2023-11-22T07:08:22;0.35;;;0.30;;
55417;SDS011;41287;47.554;7.844;2023-11-22T07:10:50;2.67;;;0.52;;
55417;SDS011;41287;47.554;7.844;2023-11-22T07:13:17;0.65;;;0.40;;
55417;SDS011;41287;47.554;7.844;2023-11-22T07:15:43;0.85;;;0.35;;
55417;SDS011;41287;47.554;7.844;2023-11-22T07:18:08;2.47;;;0.38;;
55417;SDS011;41287;47.554;7.844;2023-11-22T07:20:35;2.08;;;0.38;;
55417;SDS011;41287;47.554;7.844;2023-11-22T07:23:00;1.13;;;0.40;;
55417;SDS011;41287;47.554;7.844;2023-11-22T07:25:28;2.85;;;0.55;;
55417;SDS011;41287;47.554;7.844;2023-11-22T07:27:54;3.38;;;0.43;;
55417;SDS011;41287;47.554;7.844;2023-11-22T07:30:19;0.50;;;0.40;;
55417;SDS011;41287;47.554;7.844;2023-11-22T07:32:47;0.95;;;0.30;;
55417;SDS011;41287;47.554;7.844;2023-11-22T07:35:13;0.98;;;0.30;;
55417;SDS011;41287;47.554;7.844;2023-11-22T07:37:40;2.50;;;0.50;;
55417;SDS011;41287;47.554;7.844;2023-11-22T07:40:09;0.80;;;0.30;;
55417;SDS011;41287;47.554;7.844;2023-11-22T07:42:37;1.52;;;0.50;;
55417;SDS011;41287;47.554;7.844;2023-11-22T07:45:03;1.17;;;0.40;;
55417;SDS011;41287;47.554;7.844;2023-11-22T07:47:35;1.83;;;0.30;;
55417;SDS011;41287;47.554;7.844;2023-11-22T07:50:00;0.98;;;0.30;;
55417;SDS011;41287;47.554;7.844;2023-11-22T07:52:28;0.52;;;0.30;;
55417;SDS011;41287;47.554;7.844;2023-11-22T07:54:57;0.43;;;0.22;;
55417;SDS011;41287;47.554;7.844;2023-11-22T07:57:23;0.73;;;0.40;;
55417;SDS011;41287;47.554;7.844;2023-11-22T07:59:49;4.18;;;0.38;;
55417;SDS011;41287;47.554;7.844;2023-11-22T08:02:20;1.75;;;0.50;;
55417;SDS011;41287;47.554;7.844;2023-11-22T08:04:46;2.50;;;0.32;;
55417;SDS011;41287;47.554;7.844;2023-11-22T08:07:13;1.88;;;0.40;;
55417;SDS011;41287;47.554;7.844;2023-11-22T08:09:41;1.30;;;0.30;;
55417;SDS011;41287;47.554;7.844;2023-11-22T08:12:07;0.80;;;0.40;;
55417;SDS011;41287;47.554;7.844;2023-11-22T08:14:35;0.40;;;0.35;;
55417;SDS011;41287;47.554;7.844;2023-11-22T08:17:03;0.32;;;0.30;;
55417;SDS011;41287;47.554;7.844;2023-11-22T08:19:30;0.57;;;0.38;;
55417;SDS011;41287;47.554;7.844;2023-11-22T08:21:55;0.30;;;0.30;;
55417;SDS011;41287;47.554;7.844;2023-11-22T08:24:21;1.35;;;0.40;;
55417;SDS011;41287;47.554;7.844;2023-11-22T08:26:47;0.55;;;0.30;;
55417;SDS011;41287;47.554;7.844;2023-11-22T08:29:17;0.30;;;0.30;;
55417;SDS011;41287;47.554;7.844;2023-11-22T08:31:43;0.52;;;0.40;;
55417;SDS011;41287;47.554;7.844;2023-11-22T08:34:08;0.40;;;0.30;;
55417;SDS011;41287;47.554;7.844;2023-11-22T08:36:36;1.05;;;0.40;;
55417;SDS011;41287;47.554;7.844;2023-11-22T08:39:02;0.20;;;0.20;;
55417;SDS011;41287;47.554;7.844;2023-11-22T08:41:29;0.25;;;0.20;;
55417;SDS011;41287;47.554;7.844;2023-11-22T08:43:56;1.77;;;0.40;;
55417;SDS011;41287;47.554;7.844;2023-11-22T08:46:22;0.82;;;0.30;;
55417;SDS011;41287;47.554;7.844;2023-11-22T08:48:49;0.30;;;0.30;;
55417;SDS011;41287;47.554;7.844;2023-11-22T08:51:18;0.40;;;0.30;;
55417;SDS011;41287;47.554;7.844;2023-11-22T08:53:43;0.43;;;0.25;;
55417;SDS011;41287;47.554;7.844;2023-11-22T08:56:09;1.55;;;0.30;;
55417;SDS011;41287;47.554;7.844;2023-11-22T08:58:36;0.55;;;0.20;;
55417;SDS011;41287;47.554;7.844;2023-11-22T09:01:04;0.50;;;0.30;;
55417;SDS011;41287;47.554;7.844;2023-11-22T09:03:31;0.30;;;0.30;;
55417;SDS011;41287;47.554;7.844;2023-11-22T09:05:57;0.40;;;0.30;;
55417;SDS011;41287;47.554;7.844;2023-11-22T09:08:23;1.20;;;0.20;;
55417;SDS011;41287;47.554;7.844;2023-11-22T09:10:48;0.47;;;0.40;;
55417;SDS011;41287;47.554;7.844;2023-11-22T09:13:15;0.20;;;0.20;;
55417;SDS011;41287;47.554;7.844;2023-11-22T09:15:42;0.20;;;0.20;;
55417;SDS011;41287;47.554;7.844;2023-11-22T09:18:09;0.45;;;0.20;;
55417;SDS011;41287;47.554;7.844;2023-11-22T09:20:35;0.35;;;0.30;;
55417;SDS011;41287;47.554;7.844;2023-11-22T09:23:00;0.25;;;0.20;;
55417;SDS011;41287;47.554;7.844;2023-11-22T09:25:26;0.30;;;0.30;;
55417;SDS011;41287;47.554;7.844;2023-11-22T09:27:56;1.38;;;0.30;;
55417;SDS011;41287;47.554;7.844;2023-11-22T09:30:28;0.40;;;0.30;;
55417;SDS011;41287;47.554;7.844;2023-11-22T09:33:10;0.30;;;0.30;;
55417;SDS011;41287;47.554;7.844;2023-11-22T09:35:41;0.30;;;0.30;;
55417;SDS011;41287;47.554;7.844;2023-11-22T09:38:08;0.47;;;0.22;;
55417;SDS011;41287;47.554;7.844;2023-11-22T09:40:46;0.32;;;0.30;;
55417;SDS011;41287;47.554;7.844;2023-11-22T09:43:14;0.20;;;0.20;;
55417;SDS011;41287;47.554;7.844;2023-11-22T09:45:42;0.47;;;0.32;;
55417;SDS011;41287;47.554;7.844;2023-11-22T09:48:15;0.38;;;0.20;;
55417;SDS011;41287;47.554;7.844;2023-11-22T09:53:43;1.65;;;0.22;;
55417;SDS011;41287;47.554;7.844;2023-11-22T09:56:10;0.45;;;0.20;;
55417;SDS011;41287;47.554;7.844;2023-11-22T09:58:39;0.28;;;0.22;;
55417;SDS011;41287;47.554;7.844;2023-11-22T10:01:08;0.63;;;0.28;;
55417;SDS011;41287;47.554;7.844;2023-11-22T10:03:36;0.22;;;0.22;;
55417;SDS011;41287;47.554;7.844;2023-11-22T10:06:02;0.38;;;0.30;;
55417;SDS011;41287;47.554;7.844;2023-11-22T10:08:29;0.43;;;0.30;;
55417;SDS011;41287;47.554;7.844;2023-11-22T10:10:57;0.20;;;0.20;;
55417;SDS011;41287;47.554;7.844;2023-11-22T10:13:24;0.40;;;0.30;;
55417;SDS011;41287;47.554;7.844;2023-11-22T10:15:50;0.70;;;0.30;;
55417;SDS011;41287;47.554;7.844;2023-11-22T10:18:16;0.20;;;0.20;;
55417;SDS011;41287;47.554;7.844;2023-11-22T10:20:43;0.25;;;0.20;;
55417;SDS011;41287;47.554;7.844;2023-11-22T10:23:15;0.30;;;0.30;;
55417;SDS011;41287;47.554;7.844;2023-11-22T10:25:48;1.88;;;0.40;;
55417;SDS011;41287;47.554;7.844;2023-11-22T10:28:20;0.70;;;0.40;;
55417;SDS011;41287;47.554;7.844;2023-11-22T10:30:46;2.60;;;0.40;;
55417;SDS011;41287;47.554;7.844;2023-11-22T10:33:13;1.58;;;0.32;;
55417;SDS011;41287;47.554;7.844;2023-11-22T10:35:46;1.05;;;0.30;;
55417;SDS011;41287;47.554;7.844;2023-11-22T10:38:19;0.20;;;0.20;;
55417;SDS011;41287;47.554;7.844;2023-11-22T10:40:45;0.32;;;0.30;;
55417;SDS011;41287;47.554;7.844;2023-11-22T10:43:12;0.40;;;0.30;;
55417;SDS011;41287;47.554;7.844;2023-11-22T10:45:41;0.85;;;0.40;;
55417;SDS011;41287;47.554;7.844;2023-11-22T10:48:13;0.30;;;0.20;;
55417;SDS011;41287;47.554;7.844;2023-11-22T10:50:43;0.90;;;0.35;;
55417;SDS011;41287;47.554;7.844;2023-11-22T10:53:12;0.80;;;0.40;;
55417;SDS011;41287;47.554;7.844;2023-11-22T10:55:46;3.10;;;0.38;;
55417;SDS011;41287;47.554;7.844;2023-11-22T10:58:14;0.82;;;0.30;;
55417;SDS011;41287;47.554;7.844;2023-11-22T11:00:41;0.55;;;0.40;;
55417;SDS011;41287;47.554;7.844;2023-11-22T11:03:19;0.30;;;0.30;;
55417;SDS011;41287;47.554;7.844;2023-11-22T11:05:52;0.20;;;0.20;;
55417;SDS011;41287;47.554;7.844;2023-11-22T11:08:24;0.20;;;0.20;;
55417;SDS011;41287;47.554;7.844;2023-11-22T11:10:52;0.52;;;0.40;;
55417;SDS011;41287;47.554;7.844;2023-11-22T11:13:21;0.30;;;0.30;;
55417;SDS011;41287;47.554;7.844;2023-11-22T11:15:46;0.20;;;0.20;;
55417;SDS011;41287;47.554;7.844;2023-11-22T11:18:13;0.20;;;0.20;;
55417;SDS011;41287;47.554;7.844;2023-11-22T11:20:45;1.70;;;0.30;;
55417;SDS011;41287;47.554;7.844;2023-11-22T11:23:14;0.35;;;0.30;;
55417;SDS011;41287;47.554;7.844;2023-11-22T11:25:41;0.40;;;0.30;;
55417;SDS011;41287;47.554;7.844;2023-11-22T11:28:10;0.52;;;0.38;;
55417;SDS011;41287;47.554;7.844;2023-11-22T11:33:26;0.90;;;0.30;;
55417;SDS011;41287;47.554;7.844;2023-11-22T11:35:52;0.85;;;0.30;;
55417;SDS011;41287;47.554;7.844;2023-11-22T11:38:22;0.52;;;0.20;;
55417;SDS011;41287;47.554;7.844;2023-11-22T11:40:55;0.32;;;0.20;;
55417;SDS011;41287;47.554;7.844;2023-11-22T11:43:21;0.25;;;0.25;;
55417;SDS011;41287;47.554;7.844;2023-11-22T11:46:03;0.30;;;0.30;;
55417;SDS011;41287;47.554;7.844;2023-11-22T11:48:33;0.40;;;0.30;;
55417;SDS011;41287;47.554;7.844;2023-11-22T11:50:58;0.30;;;0.20;;
55417;SDS011;41287;47.554;7.844;2023-11-22T11:53:23;0.47;;;0.30;;
55417;SDS011;41287;47.554;7.844;2023-11-22T11:55:49;0.20;;;0.20;;
55417;SDS011;41287;47.554;7.844;2023-11-22T11:58:16;1.02;;;0.30;;
55417;SDS011;41287;47.554;7.844;2023-11-22T12:00:43;0.32;;;0.30;;
55417;SDS011;41287;47.554;7.844;2023-11-22T12:03:09;0.20;;;0.20;;
55417;SDS011;41287;47.554;7.844;2023-11-22T12:05:36;0.28;;;0.20;;
55417;SDS011;41287;47.554;7.844;2023-11-22T12:08:02;0.25;;;0.20;;
55417;SDS011;41287;47.554;7.844;2023-11-22T12:10:27;0.57;;;0.28;;
55417;SDS011;41287;47.554;7.844;2023-11-22T12:12:53;0.38;;;0.20;;
55417;SDS011;41287;47.554;7.844;2023-11-22T12:15:18;0.75;;;0.30;;
55417;SDS011;41287;47.554;7.844;2023-11-22T12:17:44;0.63;;;0.35;;
55417;SDS011;41287;47.554;7.844;2023-11-22T12:20:22;0.30;;;0.30;;
55417;SDS011;41287;47.554;7.844;2023-11-22T12:22:50;0.20;;;0.20;;
55417;SDS011;41287;47.554;7.844;2023-11-22T12:25:16;0.85;;;0.35;;
55417;SDS011;41287;47.554;7.844;2023-11-22T12:27:41;1.50;;;0.30;;
55417;SDS011;41287;47.554;7.844;2023-11-22T12:30:08;0.40;;;0.30;;
55417;SDS011;41287;47.554;7.844;2023-11-22T12:32:34;0.30;;;0.30;;
55417;SDS011;41287;47.554;7.844;2023-11-22T12:34:59;0.45;;;0.30;;
55417;SDS011;41287;47.554;7.844;2023-11-22T12:37:29;1.23;;;0.20;;
55417;SDS011;41287;47.554;7.844;2023-11-22T12:39:56;0.22;;;0.20;;
55417;SDS011;41287;47.554;7.844;2023-11-22T12:42:21;0.93;;;0.50;;
55417;SDS011;41287;47.554;7.844;2023-11-22T12:44:48;0.45;;;0.22;;
55417;SDS011;41287;47.554;7.844;2023-11-22T12:47:33;0.30;;;0.30;;
55417;SDS011;41287;47.554;7.844;2023-11-22T12:50:02;0.30;;;0.30;;
55417;SDS011;41287;47.554;7.844;2023-11-22T12:52:32;0.20;;;0.20;;
55417;SDS011;41287;47.554;7.844;2023-11-22T12:54:58;0.40;;;0.30;;
55417;SDS011;41287;47.554;7.844;2023-11-22T12:57:24;0.20;;;0.20;;
55417;SDS011;41287;47.554;7.844;2023-11-22T12:59:49;0.40;;;0.30;;
55417;SDS011;41287;47.554;7.844;2023-11-22T13:02:15;0.93;;;0.30;;
55417;SDS011;41287;47.554;7.844;2023-11-22T13:04:42;0.38;;;0.30;;
55417;SDS011;41287;47.554;7.844;2023-11-22T13:07:07;0.73;;;0.30;;
55417;SDS011;41287;47.554;7.844;2023-11-22T13:09:36;0.63;;;0.40;;
55417;SDS011;41287;47.554;7.844;2023-11-22T13:12:02;0.30;;;0.30;;
55417;SDS011;41287;47.554;7.844;2023-11-22T13:14:27;0.30;;;0.30;;
55417;SDS011;41287;47.554;7.844;2023-11-22T13:17:02;0.30;;;0.30;;
55417;SDS011;41287;47.554;7.844;2023-11-22T13:19:29;0.57;;;0.40;;
55417;SDS011;41287;47.554;7.844;2023-11-22T13:21:54;0.20;;;0.20;;
55417;SDS011;41287;47.554;7.844;2023-11-22T13:24:23;0.52;;;0.30;;
55417;SDS011;41287;47.554;7.844;2023-11-22T13:26:48;0.30;;;0.30;;
55417;SDS011;41287;47.554;7.844;2023-11-22T13:29:14;0.80;;;0.30;;
55417;SDS011;41287;47.554;7.844;2023-11-22T13:31:39;0.20;;;0.20;;
55417;SDS011;41287;47.554;7.844;2023-11-22T13:34:09;0.30;;;0.30;;
55417;SDS011;41287;47.554;7.844;2023-11-22T13:36:35;0.25;;;0.25;;
55417;SDS011;41287;47.554;7.844;2023-11-22T13:39:01;0.60;;;0.30;;
55417;SDS011;41287;47.554;7.844;2023-11-22T13:41:30;1.58;;;0.50;;
55417;SDS011;41287;47.554;7.844;2023-11-22T13:43:55;0.30;;;0.30;;
55417;SDS011;41287;47.554;7.844;2023-11-22T13:46:20;0.32;;;0.30;;
55417;SDS011;41287;47.554;7.844;2023-11-22T13:48:45;0.25;;;0.25;;
55417;SDS011;41287;47.554;7.844;2023-11-22T13:51:11;0.50;;;0.30;;
55417;SDS011;41287;47.554;7.844;2023-11-22T13:53:36;0.25;;;0.25;;
55417;SDS011;41287;47.554;7.844;2023-11-22T13:56:04;0.43;;;0.30;;
55417;SDS011;41287;47.554;7.844;2023-11-22T13:58:34;0.60;;;0.38;;
55417;SDS011;41287;47.554;7.844;2023-11-22T14:01:00;0.28;;;0.28;;
55417;SDS011;41287;47.554;7.844;2023-11-22T14:03:25;0.90;;;0.32;;
55417;SDS011;41287;47.554;7.844;2023-11-22T14:05:51;0.40;;;0.30;;
55417;SDS011;41287;47.554;7.844;2023-11-22T14:08:17;0.30;;;0.30;;
55417;SDS011;41287;47.554;7.844;2023-11-22T14:10:42;1.15;;;0.30;;
55417;SDS011;41287;47.554;7.844;2023-11-22T14:13:09;0.47;;;0.40;;
55417;SDS011;41287;47.554;7.844;2023-11-22T14:15:35;0.30;;;0.30;;
55417;SDS011;41287;47.554;7.844;2023-11-22T14:18:00;0.30;;;0.30;;
55417;SDS011;41287;47.554;7.844;2023-11-22T14:20:26;0.28;;;0.28;;
55417;SDS011;41287;47.554;7.844;2023-11-22T14:22:51;0.50;;;0.40;;
55417;SDS011;41287;47.554;7.844;2023-11-22T14:25:17;0.30;;;0.30;;
55417;SDS011;41287;47.554;7.844;2023-11-22T14:27:44;0.68;;;0.30;;
55417;SDS011;41287;47.554;7.844;2023-11-22T14:30:11;0.68;;;0.20;;
55417;SDS011;41287;47.554;7.844;2023-11-22T14:32:41;0.80;;;0.25;;
55417;SDS011;41287;47.554;7.844;2023-11-22T14:35:08;0.30;;;0.30;;
55417;SDS011;41287;47.554;7.844;2023-11-22T14:37:34;0.30;;;0.30;;
55417;SDS011;41287;47.554;7.844;2023-11-22T14:40:00;0.50;;;0.30;;
55417;SDS011;41287;47.554;7.844;2023-11-22T14:42:29;0.80;;;0.40;;
55417;SDS011;41287;47.554;7.844;2023-11-22T14:44:54;0.40;;;0.30;;
55417;SDS011;41287;47.554;7.844;2023-11-22T14:47:20;0.30;;;0.25;;
55417;SDS011;41287;47.554;7.844;2023-11-22T14:49:49;0.65;;;0.40;;
55417;SDS011;41287;47.554;7.844;2023-11-22T14:52:15;0.52;;;0.30;;
55417;SDS011;41287;47.554;7.844;2023-11-22T14:54:41;0.43;;;0.30;;